Skip Navigation Links
NOAA logo - Click to go to the NOAA homepage
NOAA's National Weather Service
Alaska Aviation Weather Unit
  NWS logo - Click to go to the NWS homepage
Left Navbar Graphic     17 AKDT = 01 GMT

   
NOAA is celebrating 200 years of science, service, and stewardship. Visit the NOAA 200th celebration Web site to learn more.
USA.gov is the U.S. Government's official Web portal to all Federal, state and local government Web resources and services.
Facebook
NWS on Facebook

Important Change Regarding the AAWU Web Presence

 

Over the last several months, the AAWU has been working to navigate its webpages to a nationally supported server. Security, as well as other needs, have necessitated the change.  We have been given an extension for the site changeover while we diligently work at addressing feedback received. As of July 14, 2017, aawu.arh.noaa.gov will be discontinued. The new AAWU web address is weather.gov/aawu. It is now live and will run in-parallel with the old site until it is discontinued on July 14, 2017. Please continue to send any feedback or questions regarding the new webpages to nws.ar.aawu.webauthors@noaa.gov.  Thank you for your patience during this time of transition.
AAWU Home :: Display TAF Add Bookmark
METAR PADE 172053Z AUTO 28009KT 10SM OVC018 01/M02 A2950 RMK AO2 SNE03
     SLP991 P0000 60003 T00111017 53004 TSNO $=

METAR PADE 172153Z AUTO 28011KT 10SM BKN018 02/M02 A2950 RMK AO2 SLP991
     T00171022 TSNO $=

METAR PADE 172253Z AUTO 24010KT 10SM BKN022 OVC029 02/M01 A2950 RMK AO2
     SLP990 T00171011 TSNO $=

METAR PADE 172353Z AUTO 32010KT 10SM BKN029 OVC090 02/M03 A2949 RMK AO2
     SLP988 60003 T00171033 10022 20006 58002 TSNO $=

SPECI PADE 180001Z AUTO 31010KT 10SM BKN031 OVC090 02/M04 A2950 RMK
 AO2 T00171039 TSNO $=

METAR PADE 180053Z AUTO 31008KT 10SM FEW027 SCT070 BKN085 02/M03
 A2949 RMK AO2 SLP986 T00171033 TSNO $=


NOAA's National Weather Service
Alaska Aviation Weather Unit
6930 Sand Lake Road
Anchorage, AK 99502-1845
Disclaimer
Credits
Glossary
Privacy Policy
About Us
Career Opportunities
Contact AAWU Internet Services Site last modified: April, 17th 2012